createdAt,value
2018-11-07T00:01:34.731Z,100.00
2018-11-07T00:04:03.185Z,100.00
2018-11-07T00:06:31.612Z,100.00
2018-11-07T00:08:59.988Z,100.00
2018-11-07T00:11:28.300Z,100.00
2018-11-07T00:13:56.692Z,100.00
2018-11-07T00:16:25.099Z,100.00
2018-11-07T00:18:53.408Z,100.00
2018-11-07T00:21:21.776Z,100.00
2018-11-07T00:23:50.161Z,100.00
2018-11-07T00:26:18.658Z,100.00
2018-11-07T00:28:47.128Z,100.00
2018-11-07T00:31:15.617Z,100.00
2018-11-07T00:33:44.580Z,100.00
2018-11-07T00:36:12.966Z,100.00
2018-11-07T00:38:41.415Z,100.00
2018-11-07T00:41:16.402Z,100.00
2018-11-07T00:43:44.797Z,100.00
2018-11-07T00:46:13.139Z,100.00
2018-11-07T00:48:41.551Z,100.00
2018-11-07T00:51:09.919Z,100.00
2018-11-07T00:53:38.271Z,100.00
2018-11-07T00:56:07.482Z,100.00
2018-11-07T00:58:35.772Z,100.00
2018-11-07T01:01:04.153Z,100.00
2018-11-07T01:03:32.499Z,100.00
2018-11-07T01:06:00.915Z,100.00
2018-11-07T01:08:29.218Z,100.00
2018-11-07T01:10:57.635Z,100.00
2018-11-07T01:13:26.050Z,100.00
2018-11-07T01:15:54.437Z,100.00
2018-11-07T01:18:22.830Z,100.00
2018-11-07T01:20:51.205Z,100.00
2018-11-07T01:23:19.680Z,100.00
2018-11-07T01:25:48.038Z,100.00
2018-11-07T01:28:16.485Z,100.00
2018-11-07T01:30:44.817Z,100.00
2018-11-07T01:33:13.171Z,100.00
2018-11-07T01:35:41.531Z,100.00
2018-11-07T01:38:10.032Z,100.00
2018-11-07T01:40:38.469Z,100.00
2018-11-07T01:43:06.848Z,100.00
2018-11-07T01:45:35.139Z,100.00
2018-11-07T01:48:03.563Z,100.00
2018-11-07T01:50:31.880Z,100.00
2018-11-07T01:53:00.183Z,100.00
2018-11-07T01:55:28.540Z,100.00
2018-11-07T01:57:57.067Z,100.00
2018-11-07T02:00:25.500Z,100.00
2018-11-07T02:02:54.107Z,100.00
2018-11-07T02:05:22.452Z,100.00
2018-11-07T02:07:50.780Z,100.00
2018-11-07T02:10:19.150Z,100.00
2018-11-07T02:12:47.555Z,100.00
2018-11-07T02:15:15.956Z,100.00
2018-11-07T02:17:44.332Z,100.00
2018-11-07T02:20:13.055Z,100.00
2018-11-07T02:22:42.090Z,100.00
2018-11-07T02:25:10.524Z,100.00
2018-11-07T02:27:39.258Z,100.00
2018-11-07T02:30:10.056Z,100.00
2018-11-07T02:32:38.404Z,100.00
2018-11-07T02:35:06.716Z,100.00
2018-11-07T02:37:35.225Z,100.00
2018-11-07T02:40:03.664Z,100.00
2018-11-07T02:42:32.143Z,100.00
2018-11-07T02:45:00.543Z,100.00
2018-11-07T02:47:28.987Z,100.00
2018-11-07T02:49:57.365Z,100.00
2018-11-07T02:52:25.724Z,100.00
2018-11-07T02:54:54.031Z,100.00
2018-11-07T02:57:22.475Z,100.00
2018-11-07T02:59:50.877Z,100.00
2018-11-07T03:02:19.256Z,100.00
2018-11-07T03:04:47.671Z,100.00
2018-11-07T03:07:16.033Z,100.00
2018-11-07T03:09:44.392Z,100.00
2018-11-07T03:12:12.747Z,100.00
2018-11-07T03:14:41.060Z,100.00
2018-11-07T03:17:09.429Z,100.00
2018-11-07T03:19:37.823Z,100.00
2018-11-07T03:22:06.548Z,100.00
2018-11-07T03:24:34.909Z,100.00
2018-11-07T03:27:03.281Z,100.00
2018-11-07T03:29:31.667Z,100.00
2018-11-07T03:32:00.037Z,100.00
2018-11-07T03:34:28.357Z,100.00
2018-11-07T03:36:56.697Z,100.00
2018-11-07T03:39:25.021Z,100.00
2018-11-07T03:41:53.390Z,100.00
2018-11-07T03:44:21.723Z,100.00
2018-11-07T03:46:50.203Z,100.00
2018-11-07T03:49:18.624Z,100.00
2018-11-07T03:51:47.016Z,100.00
2018-11-07T03:54:15.308Z,100.00
2018-11-07T03:56:43.603Z,100.00
2018-11-07T03:59:11.962Z,100.00
2018-11-07T04:01:40.313Z,100.00
2018-11-07T04:04:08.704Z,100.00
2018-11-07T04:06:37.032Z,100.00
2018-11-07T04:09:08.611Z,100.00
2018-11-07T04:11:37.004Z,100.00
2018-11-07T04:14:05.923Z,100.00
2018-11-07T04:16:34.299Z,100.00
2018-11-07T04:19:02.679Z,100.00
2018-11-07T04:21:31.067Z,100.00
2018-11-07T04:24:01.586Z,100.00
2018-11-07T04:26:30.756Z,100.00
2018-11-07T04:28:59.147Z,100.00
2018-11-07T04:31:27.433Z,100.00
2018-11-07T04:33:55.736Z,100.00
2018-11-07T04:36:24.488Z,100.00
2018-11-07T04:38:53.131Z,100.00
2018-11-07T04:41:21.487Z,100.00
2018-11-07T04:43:49.824Z,100.00
2018-11-07T04:46:18.211Z,100.00
2018-11-07T04:48:46.599Z,100.00
2018-11-07T04:51:15.544Z,100.00
2018-11-07T04:53:43.956Z,100.00
2018-11-07T04:56:12.443Z,100.00
2018-11-07T04:58:40.784Z,100.00
2018-11-07T05:01:12.333Z,100.00
2018-11-07T05:03:40.753Z,100.00
2018-11-07T05:06:09.123Z,100.00
2018-11-07T05:08:37.774Z,100.00
2018-11-07T05:11:06.259Z,100.00
2018-11-07T05:13:34.838Z,100.00
2018-11-07T05:16:03.219Z,100.00
2018-11-07T05:18:31.579Z,100.00
2018-11-07T05:20:59.989Z,100.00
2018-11-07T05:23:28.441Z,100.00
2018-11-07T05:25:56.875Z,100.00
2018-11-07T05:28:25.243Z,100.00
2018-11-07T05:30:53.679Z,100.00
2018-11-07T05:33:22.118Z,100.00
2018-11-07T05:35:50.465Z,100.00
2018-11-07T05:38:18.878Z,100.00
2018-11-07T05:40:47.262Z,100.00
2018-11-07T05:43:15.636Z,100.00
2018-11-07T05:45:44.006Z,100.00
2018-11-07T05:48:12.581Z,100.00
2018-11-07T05:50:40.952Z,100.00
2018-11-07T05:53:09.432Z,100.00
2018-11-07T05:55:37.862Z,100.00
2018-11-07T05:58:06.385Z,100.00
2018-11-07T06:00:34.751Z,100.00
2018-11-07T06:03:03.131Z,100.00
2018-11-07T06:05:31.479Z,100.00
2018-11-07T06:07:59.861Z,100.00
2018-11-07T06:10:28.296Z,100.00
2018-11-07T06:12:56.712Z,100.00
2018-11-07T06:15:25.273Z,100.00
2018-11-07T06:17:53.554Z,100.00
2018-11-07T06:20:21.848Z,100.00
2018-11-07T06:22:50.253Z,100.00
2018-11-07T06:25:18.598Z,100.00
2018-11-07T06:27:47.030Z,100.00
2018-11-07T06:30:15.469Z,100.00
2018-11-07T06:32:44.032Z,100.00
2018-11-07T06:35:12.359Z,100.00
2018-11-07T06:37:40.918Z,100.00
2018-11-07T06:40:10.658Z,100.00
2018-11-07T06:42:39.154Z,100.00
2018-11-07T06:45:08.350Z,100.00
2018-11-07T06:47:36.666Z,100.00
2018-11-07T06:50:06.292Z,100.00
2018-11-07T06:52:34.654Z,100.00
2018-11-07T06:55:03.034Z,100.00
2018-11-07T06:57:31.388Z,100.00
2018-11-07T06:59:59.734Z,100.00
2018-11-07T07:02:28.043Z,100.00
2018-11-07T07:04:56.362Z,100.00
2018-11-07T07:07:24.825Z,100.00
2018-11-07T07:09:53.129Z,100.00
2018-11-07T07:12:21.486Z,100.00
2018-11-07T07:14:49.847Z,100.00
2018-11-07T07:17:18.187Z,100.00
2018-11-07T07:19:46.488Z,100.00
2018-11-07T07:22:14.870Z,100.00
2018-11-07T07:24:43.269Z,100.00
2018-11-07T07:27:11.634Z,100.00
2018-11-07T07:29:39.983Z,100.00
2018-11-07T07:32:08.427Z,100.00
2018-11-07T07:34:36.812Z,100.00
2018-11-07T07:37:05.764Z,100.00
2018-11-07T07:39:34.241Z,100.00
2018-11-07T07:42:02.820Z,100.00
2018-11-07T07:44:31.305Z,100.00
2018-11-07T07:46:59.740Z,100.00
2018-11-07T07:49:28.139Z,100.00
2018-11-07T07:51:56.563Z,100.00
2018-11-07T07:54:24.944Z,100.00
2018-11-07T07:56:53.303Z,100.00
2018-11-07T07:59:21.685Z,100.00
2018-11-07T08:01:50.200Z,100.00
2018-11-07T08:04:18.768Z,100.00
2018-11-07T08:06:47.292Z,100.00
2018-11-07T08:09:16.117Z,100.00
2018-11-07T08:11:44.504Z,100.00
2018-11-07T08:14:12.824Z,100.00
2018-11-07T08:16:41.260Z,100.00
2018-11-07T08:19:10.098Z,100.00
2018-11-07T08:21:38.521Z,100.00
2018-11-07T08:24:06.893Z,100.00
2018-11-07T08:26:35.495Z,100.00
2018-11-07T08:29:04.051Z,100.00
2018-11-07T08:31:32.740Z,100.00
2018-11-07T08:34:01.128Z,100.00
2018-11-07T08:36:29.584Z,100.00
2018-11-07T08:38:57.933Z,100.00
2018-11-07T08:41:26.417Z,100.00
2018-11-07T08:43:54.774Z,100.00
2018-11-07T08:46:23.124Z,99.42
2018-11-07T08:48:51.532Z,100.00
2018-11-07T08:51:19.952Z,98.61
2018-11-07T08:53:48.409Z,99.28
2018-11-07T08:56:16.728Z,98.64
2018-11-07T08:58:45.136Z,98.65
2018-11-07T09:01:13.586Z,98.73
2018-11-07T09:03:41.863Z,98.17
2018-11-07T09:06:10.264Z,100.00
2018-11-07T09:08:38.716Z,100.00
2018-11-07T09:11:07.192Z,100.00
2018-11-07T09:13:35.614Z,100.00
2018-11-07T09:16:04.003Z,99.31
2018-11-07T09:18:32.456Z,100.00
2018-11-07T09:21:00.818Z,99.42
2018-11-07T09:23:29.223Z,99.44
2018-11-07T09:25:57.720Z,96.58
2018-11-07T09:28:26.173Z,94.39
2018-11-07T09:30:54.537Z,93.62
2018-11-07T09:33:22.961Z,93.36
2018-11-07T09:35:51.384Z,93.47
2018-11-07T09:38:19.775Z,91.76
2018-11-07T09:40:48.121Z,92.31
2018-11-07T09:43:16.481Z,91.25
2018-11-07T09:45:44.861Z,88.71
2018-11-07T09:48:13.233Z,89.51
2018-11-07T09:50:41.794Z,91.58
2018-11-07T09:53:10.167Z,90.33
2018-11-07T09:55:38.511Z,88.12
2018-11-07T09:58:06.845Z,87.35
2018-11-07T10:00:35.193Z,85.73
2018-11-07T10:03:03.530Z,87.33
2018-11-07T10:05:31.977Z,87.53
2018-11-07T10:08:00.353Z,87.89
2018-11-07T10:10:28.782Z,87.87
2018-11-07T10:12:57.106Z,88.85
2018-11-07T10:15:25.492Z,88.03
2018-11-07T10:17:53.884Z,87.40
2018-11-07T10:20:23.211Z,87.77
2018-11-07T10:22:51.576Z,89.47
2018-11-07T10:25:20.167Z,89.75
2018-11-07T10:27:48.819Z,90.07
2018-11-07T10:30:18.337Z,89.11
2018-11-07T10:32:47.673Z,89.21
2018-11-07T10:35:16.168Z,89.02
2018-11-07T10:37:44.666Z,89.70
2018-11-07T10:40:15.440Z,88.91
2018-11-07T10:42:43.956Z,88.31
2018-11-07T10:45:12.750Z,89.21
2018-11-07T10:47:41.540Z,89.60
2018-11-07T10:50:11.309Z,90.19
2018-11-07T10:52:40.503Z,89.58
2018-11-07T10:55:09.513Z,89.09
2018-11-07T10:57:38.117Z,88.17
2018-11-07T11:00:12.793Z,87.59
2018-11-07T11:02:47.318Z,88.12
2018-11-07T11:05:17.337Z,87.65
2018-11-07T11:07:45.750Z,88.19
2018-11-07T11:10:14.455Z,85.89
2018-11-07T11:12:43.992Z,86.89
2018-11-07T11:15:12.439Z,85.37
2018-11-07T11:17:40.883Z,86.37
2018-11-07T11:20:11.091Z,83.38
2018-11-07T11:22:39.416Z,82.84
2018-11-07T11:25:07.799Z,81.49
2018-11-07T11:27:36.285Z,79.60
2018-11-07T11:30:05.328Z,77.48
2018-11-07T11:32:33.800Z,74.12
2018-11-07T11:35:02.743Z,72.96
2018-11-07T11:37:31.089Z,68.68
2018-11-07T11:39:59.506Z,67.75
2018-11-07T11:42:27.887Z,68.07
2018-11-07T11:45:16.494Z,63.45
2018-11-07T11:47:52.796Z,64.51
2018-11-07T11:50:21.691Z,65.28
2018-11-07T11:52:50.344Z,62.34
2018-11-07T11:55:18.777Z,59.72
2018-11-07T11:57:47.572Z,55.71
2018-11-07T12:00:17.218Z,57.77
2018-11-07T12:02:46.125Z,55.73
2018-11-07T12:05:15.517Z,55.13
2018-11-07T12:07:44.046Z,56.86
2018-11-07T12:10:17.831Z,54.66
2018-11-07T12:12:48.567Z,55.06
2018-11-07T12:15:18.000Z,54.63
2018-11-07T12:17:46.492Z,53.41
2018-11-07T12:20:14.757Z,50.26
2018-11-07T12:22:44.103Z,48.67
2018-11-07T12:25:13.601Z,48.52
2018-11-07T12:27:42.412Z,48.12
2018-11-07T12:30:13.963Z,45.52
2018-11-07T12:32:43.464Z,49.45
2018-11-07T12:35:11.963Z,49.18
2018-11-07T12:37:40.661Z,47.71
2018-11-07T12:40:09.729Z,45.13
2018-11-07T12:42:38.219Z,46.66
2018-11-07T12:45:08.145Z,46.63
2018-11-07T12:47:36.540Z,45.07
2018-11-07T12:50:05.813Z,45.38
2018-11-07T12:52:34.127Z,42.56
2018-11-07T12:55:02.514Z,43.16
2018-11-07T12:57:30.958Z,43.37
2018-11-07T12:59:59.384Z,44.93
2018-11-07T13:02:27.757Z,42.78
2018-11-07T13:04:56.080Z,42.99
2018-11-07T13:07:24.458Z,41.81
2018-11-07T13:09:52.838Z,42.55
2018-11-07T13:12:21.140Z,42.53
2018-11-07T13:14:49.596Z,44.96
2018-11-07T13:17:18.059Z,45.52
2018-11-07T13:19:46.394Z,43.13
2018-11-07T13:22:14.835Z,43.51
2018-11-07T13:24:43.167Z,42.93
2018-11-07T13:27:11.644Z,43.59
2018-11-07T13:29:40.032Z,46.27
2018-11-07T13:32:08.467Z,42.33
2018-11-07T13:34:36.852Z,40.01
2018-11-07T13:37:05.343Z,41.66
2018-11-07T13:39:33.627Z,44.61
2018-11-07T13:42:01.912Z,43.29
2018-11-07T13:44:30.296Z,46.54
2018-11-07T13:46:58.608Z,41.41
2018-11-07T13:49:27.044Z,41.78
2018-11-07T13:51:55.363Z,43.04
2018-11-07T13:54:23.798Z,44.85
2018-11-07T13:56:52.156Z,45.47
2018-11-07T13:59:20.497Z,43.60
2018-11-07T14:01:48.771Z,45.20
2018-11-07T14:04:17.200Z,48.25
2018-11-07T14:06:45.561Z,49.29
2018-11-07T14:09:13.950Z,50.78
2018-11-07T14:11:42.414Z,49.99
2018-11-07T14:14:10.831Z,51.28
2018-11-07T14:16:39.402Z,50.81
2018-11-07T14:19:07.908Z,51.19
2018-11-07T14:21:36.202Z,51.19
2018-11-07T14:24:04.736Z,53.17
2018-11-07T14:26:33.257Z,55.07
2018-11-07T14:29:01.658Z,54.66
2018-11-07T14:31:30.093Z,55.30
2018-11-07T14:33:58.522Z,55.85
2018-11-07T14:36:27.031Z,56.25
2018-11-07T14:38:55.416Z,55.41
2018-11-07T14:41:23.733Z,54.29
2018-11-07T14:43:52.172Z,55.61
2018-11-07T14:46:20.555Z,56.16
2018-11-07T14:48:48.823Z,56.57
2018-11-07T14:51:17.236Z,56.26
2018-11-07T14:53:45.655Z,58.60
2018-11-07T14:56:13.959Z,59.22
2018-11-07T14:58:42.324Z,56.91
2018-11-07T15:01:10.652Z,57.42
2018-11-07T15:03:39.000Z,60.72
2018-11-07T15:06:07.400Z,60.43
2018-11-07T15:08:36.826Z,60.40
2018-11-07T15:11:05.522Z,62.65
2018-11-07T15:13:33.773Z,61.08
2018-11-07T15:16:02.211Z,62.44
2018-11-07T15:18:30.618Z,61.12
2018-11-07T15:20:58.991Z,62.34
2018-11-07T15:23:27.346Z,64.06
2018-11-07T15:25:55.678Z,64.44
2018-11-07T15:28:24.052Z,63.99
2018-11-07T15:30:52.430Z,63.41
2018-11-07T15:33:20.789Z,64.47
2018-11-07T15:35:49.143Z,64.89
2018-11-07T15:38:17.432Z,64.34
2018-11-07T15:40:45.815Z,64.00
2018-11-07T15:43:14.243Z,65.29
2018-11-07T15:45:42.604Z,65.03
2018-11-07T15:48:11.033Z,65.90
2018-11-07T15:50:44.576Z,66.52
2018-11-07T15:53:12.949Z,68.93
2018-11-07T15:55:41.275Z,67.10
2018-11-07T15:58:09.620Z,68.30
2018-11-07T16:00:38.007Z,67.41
2018-11-07T16:03:06.386Z,67.04
2018-11-07T16:05:34.689Z,68.42
2018-11-07T16:08:03.055Z,67.22
2018-11-07T16:10:31.407Z,67.91
2018-11-07T16:12:59.762Z,67.41
2018-11-07T16:15:28.237Z,68.90
2018-11-07T16:17:56.471Z,69.44
2018-11-07T16:20:24.847Z,70.44
2018-11-07T16:22:53.267Z,69.71
2018-11-07T16:25:21.532Z,69.16
2018-11-07T16:27:49.846Z,68.62
2018-11-07T16:30:19.499Z,69.97
2018-11-07T16:32:47.846Z,69.67
2018-11-07T16:35:16.462Z,70.36
2018-11-07T16:37:44.887Z,71.62
2018-11-07T16:40:14.577Z,72.68
2018-11-07T16:42:43.659Z,73.20
2018-11-07T16:45:12.916Z,71.98
2018-11-07T16:47:41.333Z,71.66
2018-11-07T16:50:10.927Z,72.48
2018-11-07T16:52:39.339Z,72.95
2018-11-07T16:55:07.916Z,71.99
2018-11-07T16:57:36.776Z,73.13
2018-11-07T17:00:07.978Z,72.35
2018-11-07T17:02:36.303Z,73.28
2018-11-07T17:05:05.021Z,72.88
2018-11-07T17:07:33.297Z,73.37
2018-11-07T17:10:01.804Z,74.29
2018-11-07T17:12:30.179Z,74.36
2018-11-07T17:14:58.501Z,74.66
2018-11-07T17:17:28.152Z,73.94
2018-11-07T17:19:56.622Z,73.71
2018-11-07T17:22:24.956Z,73.94
2018-11-07T17:24:53.291Z,73.88
2018-11-07T17:27:21.625Z,74.95
2018-11-07T17:29:49.962Z,73.17
2018-11-07T17:32:18.537Z,74.54
2018-11-07T17:34:46.931Z,76.19
2018-11-07T17:37:15.366Z,74.30
2018-11-07T17:39:43.653Z,74.07
2018-11-07T17:42:12.053Z,74.58
2018-11-07T17:44:40.758Z,74.78
2018-11-07T17:47:09.204Z,75.90
2018-11-07T17:49:37.559Z,74.12
2018-11-07T17:52:07.159Z,71.62
2018-11-07T17:54:36.686Z,71.64
2018-11-07T17:57:06.309Z,72.06
2018-11-07T17:59:35.741Z,72.51
2018-11-07T18:02:04.131Z,72.91
2018-11-07T18:04:32.517Z,73.26
2018-11-07T18:07:00.840Z,72.17
2018-11-07T18:09:29.276Z,71.99
2018-11-07T18:11:57.580Z,73.50
2018-11-07T18:14:25.955Z,72.88
2018-11-07T18:16:54.427Z,74.69
2018-11-07T18:19:22.775Z,73.79
2018-11-07T18:21:51.152Z,74.75
2018-11-07T18:24:19.497Z,74.69
2018-11-07T18:26:47.860Z,73.97
2018-11-07T18:29:16.318Z,75.48
2018-11-07T18:31:44.650Z,76.52
2018-11-07T18:34:13.558Z,77.04
2018-11-07T18:36:41.913Z,76.75
2018-11-07T18:39:11.575Z,75.99
2018-11-07T18:41:40.221Z,77.13
2018-11-07T18:44:08.682Z,77.05
2018-11-07T18:46:37.023Z,76.92
2018-11-07T18:49:05.325Z,78.10
2018-11-07T18:51:33.739Z,78.26
2018-11-07T18:54:02.081Z,78.45
2018-11-07T18:56:33.464Z,78.84
2018-11-07T18:59:01.873Z,78.68
2018-11-07T19:01:30.209Z,79.55
2018-11-07T19:03:58.535Z,80.91
2018-11-07T19:06:26.968Z,82.18
2018-11-07T19:08:55.304Z,83.65
2018-11-07T19:11:23.725Z,85.95
2018-11-07T19:13:52.271Z,85.39
2018-11-07T19:16:20.739Z,84.53
2018-11-07T19:18:49.201Z,86.42
2018-11-07T19:21:17.580Z,84.47
2018-11-07T19:23:46.040Z,85.54
2018-11-07T19:26:14.434Z,85.48
2018-11-07T19:28:42.866Z,87.87
2018-11-07T19:31:11.330Z,89.82
2018-11-07T19:33:39.713Z,90.46
2018-11-07T19:36:08.227Z,89.20
2018-11-07T19:38:36.671Z,90.00
2018-11-07T19:41:05.409Z,91.03
2018-11-07T19:43:33.898Z,91.34
2018-11-07T19:46:02.431Z,92.03
2018-11-07T19:48:30.837Z,91.69
2018-11-07T19:50:59.266Z,91.70
2018-11-07T19:53:27.711Z,92.96
2018-11-07T19:55:56.053Z,92.72
2018-11-07T19:58:24.509Z,92.54
2018-11-07T20:00:53.669Z,94.21
2018-11-07T20:03:22.073Z,96.57
2018-11-07T20:05:50.473Z,94.91
2018-11-07T20:08:18.936Z,95.87
2018-11-07T20:10:47.393Z,96.63
2018-11-07T20:13:15.793Z,95.28
2018-11-07T20:15:44.169Z,96.77
2018-11-07T20:18:12.581Z,97.80
2018-11-07T20:20:41.031Z,93.69
2018-11-07T20:23:09.531Z,97.13
2018-11-07T20:25:37.935Z,96.90
2018-11-07T20:28:06.728Z,97.76
2018-11-07T20:30:35.196Z,98.13
2018-11-07T20:33:04.380Z,99.07
2018-11-07T20:35:32.760Z,98.58
2018-11-07T20:38:01.227Z,97.22
2018-11-07T20:40:29.676Z,98.65
2018-11-07T20:42:58.029Z,99.53
2018-11-07T20:45:26.549Z,99.23
2018-11-07T20:47:55.091Z,98.55
2018-11-07T20:50:23.512Z,99.77
2018-11-07T20:52:51.969Z,98.56
2018-11-07T20:55:20.268Z,98.86
2018-11-07T20:57:48.742Z,99.08
2018-11-07T21:00:19.318Z,99.36
2018-11-07T21:02:48.858Z,98.57
2018-11-07T21:05:17.375Z,100.00
2018-11-07T21:07:45.745Z,99.67
2018-11-07T21:10:16.785Z,98.38
2018-11-07T21:12:45.677Z,100.00
2018-11-07T21:15:15.321Z,99.53
2018-11-07T21:17:44.332Z,100.00
2018-11-07T21:20:12.720Z,100.00
2018-11-07T21:22:41.523Z,100.00
2018-11-07T21:25:09.994Z,100.00
2018-11-07T21:27:38.428Z,100.00
2018-11-07T21:30:10.747Z,100.00
2018-11-07T21:32:39.492Z,100.00
2018-11-07T21:35:08.109Z,100.00
2018-11-07T21:37:36.598Z,100.00
2018-11-07T21:40:06.604Z,100.00
2018-11-07T21:42:34.976Z,100.00
2018-11-07T21:45:03.427Z,100.00
2018-11-07T21:47:31.844Z,100.00
2018-11-07T21:50:00.352Z,100.00
2018-11-07T21:52:28.734Z,100.00
2018-11-07T21:54:57.181Z,100.00
2018-11-07T21:57:25.626Z,100.00
2018-11-07T21:59:54.137Z,100.00
2018-11-07T22:02:22.498Z,100.00
2018-11-07T22:04:51.129Z,100.00
2018-11-07T22:07:19.506Z,100.00
2018-11-07T22:09:47.865Z,100.00
2018-11-07T22:12:16.219Z,100.00
2018-11-07T22:14:44.634Z,100.00
2018-11-07T22:17:12.914Z,100.00
2018-11-07T22:19:41.356Z,100.00
2018-11-07T22:22:09.696Z,100.00
2018-11-07T22:24:38.070Z,100.00
2018-11-07T22:27:06.793Z,100.00
2018-11-07T22:29:35.197Z,100.00
2018-11-07T22:32:03.728Z,100.00
2018-11-07T22:34:32.099Z,100.00
2018-11-07T22:37:00.552Z,100.00
2018-11-07T22:39:28.921Z,100.00
2018-11-07T22:41:57.312Z,100.00
2018-11-07T22:44:25.620Z,100.00
2018-11-07T22:46:54.021Z,100.00
2018-11-07T22:49:22.311Z,100.00
2018-11-07T22:51:50.651Z,100.00
2018-11-07T22:54:19.066Z,100.00
2018-11-07T22:56:47.494Z,100.00
2018-11-07T22:59:15.930Z,100.00
2018-11-07T23:01:44.363Z,100.00
2018-11-07T23:04:12.910Z,100.00
2018-11-07T23:06:41.313Z,100.00
2018-11-07T23:09:12.373Z,100.00
2018-11-07T23:11:41.716Z,100.00
2018-11-07T23:14:11.580Z,100.00
2018-11-07T23:16:40.169Z,100.00
2018-11-07T23:19:08.788Z,100.00
2018-11-07T23:21:37.359Z,100.00
2018-11-07T23:24:06.353Z,99.90
2018-11-07T23:26:35.619Z,99.46
2018-11-07T23:29:04.167Z,100.00
2018-11-07T23:31:32.612Z,100.00
2018-11-07T23:34:01.782Z,100.00
2018-11-07T23:36:30.375Z,99.44
2018-11-07T23:38:58.750Z,100.00
2018-11-07T23:41:27.072Z,100.00
2018-11-07T23:43:55.470Z,100.00
2018-11-07T23:46:23.873Z,100.00
2018-11-07T23:48:52.292Z,100.00
2018-11-07T23:51:20.614Z,100.00
2018-11-07T23:53:48.980Z,100.00
2018-11-07T23:58:54.113Z,100.00
